sensor_id;sensor_type;location;lat;lon;timestamp;temperature;humidity
58993;DHT22;44782;0.000;0.000;2022-12-18T00:01:36;15.50;45.70
58993;DHT22;44782;0.000;0.000;2022-12-18T00:03:54;15.40;45.60
58993;DHT22;44782;0.000;0.000;2022-12-18T00:06:10;15.40;45.60
58993;DHT22;44782;0.000;0.000;2022-12-18T00:08:27;15.40;45.40
58993;DHT22;44782;0.000;0.000;2022-12-18T00:10:43;15.40;45.40
58993;DHT22;44782;0.000;0.000;2022-12-18T00:12:59;15.40;45.30
58993;DHT22;44782;0.000;0.000;2022-12-18T00:15:14;15.40;45.20
58993;DHT22;44782;0.000;0.000;2022-12-18T00:17:30;15.40;45.10
58993;DHT22;44782;0.000;0.000;2022-12-18T00:19:46;15.40;45.10
58993;DHT22;44782;0.000;0.000;2022-12-18T00:22:01;15.40;45.00
58993;DHT22;44782;0.000;0.000;2022-12-18T00:24:17;15.40;44.90
58993;DHT22;44782;0.000;0.000;2022-12-18T00:26:35;15.40;44.90
58993;DHT22;44782;0.000;0.000;2022-12-18T00:28:55;15.40;44.70
58993;DHT22;44782;0.000;0.000;2022-12-18T00:31:16;15.40;44.70
58993;DHT22;44782;0.000;0.000;2022-12-18T00:33:32;15.40;44.60
58993;DHT22;44782;0.000;0.000;2022-12-18T00:35:48;15.40;44.70
58993;DHT22;44782;0.000;0.000;2022-12-18T00:38:03;15.40;44.50
58993;DHT22;44782;0.000;0.000;2022-12-18T00:40:21;15.40;44.50
58993;DHT22;44782;0.000;0.000;2022-12-18T00:42:37;15.40;44.40
58993;DHT22;44782;0.000;0.000;2022-12-18T00:45:11;15.40;44.40
58993;DHT22;44782;0.000;0.000;2022-12-18T00:47:26;15.40;44.30
58993;DHT22;44782;0.000;0.000;2022-12-18T00:49:42;15.40;44.20
58993;DHT22;44782;0.000;0.000;2022-12-18T00:51:57;15.40;44.10
58993;DHT22;44782;0.000;0.000;2022-12-18T00:54:13;15.40;44.10
58993;DHT22;44782;0.000;0.000;2022-12-18T00:56:29;15.40;44.00
58993;DHT22;44782;0.000;0.000;2022-12-18T00:58:44;15.40;44.00
58993;DHT22;44782;0.000;0.000;2022-12-18T01:01:00;15.40;43.90
58993;DHT22;44782;0.000;0.000;2022-12-18T01:03:16;15.40;43.90
58993;DHT22;44782;0.000;0.000;2022-12-18T01:05:32;15.40;43.80
58993;DHT22;44782;0.000;0.000;2022-12-18T01:07:48;15.40;43.80
58993;DHT22;44782;0.000;0.000;2022-12-18T01:10:05;15.40;43.70
58993;DHT22;44782;0.000;0.000;2022-12-18T01:12:21;15.40;43.60
58993;DHT22;44782;0.000;0.000;2022-12-18T01:14:37;15.40;43.60
58993;DHT22;44782;0.000;0.000;2022-12-18T01:16:53;15.40;43.50
58993;DHT22;44782;0.000;0.000;2022-12-18T01:19:09;15.40;43.40
58993;DHT22;44782;0.000;0.000;2022-12-18T01:21:24;15.40;43.40
58993;DHT22;44782;0.000;0.000;2022-12-18T01:23:41;15.40;43.30
58993;DHT22;44782;0.000;0.000;2022-12-18T01:25:56;15.40;43.30
58993;DHT22;44782;0.000;0.000;2022-12-18T01:28:13;15.40;43.20
58993;DHT22;44782;0.000;0.000;2022-12-18T01:30:29;15.40;43.20
58993;DHT22;44782;0.000;0.000;2022-12-18T01:32:44;15.40;43.10
58993;DHT22;44782;0.000;0.000;2022-12-18T01:35:00;15.40;43.10
58993;DHT22;44782;0.000;0.000;2022-12-18T01:37:16;15.40;43.00
58993;DHT22;44782;0.000;0.000;2022-12-18T01:39:32;15.40;43.00
58993;DHT22;44782;0.000;0.000;2022-12-18T01:41:48;15.40;43.00
58993;DHT22;44782;0.000;0.000;2022-12-18T01:47:02;15.40;42.00
58993;DHT22;44782;0.000;0.000;2022-12-18T01:49:18;15.30;42.80
58993;DHT22;44782;0.000;0.000;2022-12-18T01:51:34;15.40;42.80
58993;DHT22;44782;0.000;0.000;2022-12-18T01:53:49;15.40;42.70
58993;DHT22;44782;0.000;0.000;2022-12-18T01:56:05;15.40;42.60
58993;DHT22;44782;0.000;0.000;2022-12-18T02:00:56;15.40;42.40
58993;DHT22;44782;0.000;0.000;2022-12-18T02:03:11;15.30;42.50
58993;DHT22;44782;0.000;0.000;2022-12-18T02:05:47;15.30;42.50
58993;DHT22;44782;0.000;0.000;2022-12-18T02:08:28;15.40;41.60
58993;DHT22;44782;0.000;0.000;2022-12-18T02:13:19;15.30;42.00
58993;DHT22;44782;0.000;0.000;2022-12-18T02:15:41;15.30;42.30
58993;DHT22;44782;0.000;0.000;2022-12-18T02:18:21;15.30;42.50
58993;DHT22;44782;0.000;0.000;2022-12-18T02:20:43;15.40;41.30
58993;DHT22;44782;0.000;0.000;2022-12-18T02:28:12;15.40;41.30
58993;DHT22;44782;0.000;0.000;2022-12-18T02:30:31;15.30;41.90
58993;DHT22;44782;0.000;0.000;2022-12-18T02:32:51;15.40;41.80
58993;DHT22;44782;0.000;0.000;2022-12-18T02:35:24;15.30;41.80
58993;DHT22;44782;0.000;0.000;2022-12-18T02:37:43;15.40;41.20
58993;DHT22;44782;0.000;0.000;2022-12-18T02:40:02;15.30;41.70
58993;DHT22;44782;0.000;0.000;2022-12-18T02:42:18;15.30;41.70
58993;DHT22;44782;0.000;0.000;2022-12-18T02:44:41;15.30;41.70
58993;DHT22;44782;0.000;0.000;2022-12-18T02:46:57;15.40;41.70
58993;DHT22;44782;0.000;0.000;2022-12-18T02:49:34;15.30;41.60
58993;DHT22;44782;0.000;0.000;2022-12-18T02:51:57;15.30;41.60
58993;DHT22;44782;0.000;0.000;2022-12-18T02:56:53;15.30;41.10
58993;DHT22;44782;0.000;0.000;2022-12-18T02:59:15;15.30;41.40
58993;DHT22;44782;0.000;0.000;2022-12-18T03:01:52;15.30;41.20
58993;DHT22;44782;0.000;0.000;2022-12-18T03:06:45;15.30;40.80
58993;DHT22;44782;0.000;0.000;2022-12-18T03:09:08;15.30;41.30
58993;DHT22;44782;0.000;0.000;2022-12-18T03:11:26;15.30;41.20
58993;DHT22;44782;0.000;0.000;2022-12-18T03:14:04;15.30;41.20
58993;DHT22;44782;0.000;0.000;2022-12-18T03:16:27;15.30;41.20
58993;DHT22;44782;0.000;0.000;2022-12-18T03:18:50;15.30;40.90
58993;DHT22;44782;0.000;0.000;2022-12-18T03:21:09;15.30;40.80
58993;DHT22;44782;0.000;0.000;2022-12-18T03:23:30;15.30;41.00
58993;DHT22;44782;0.000;0.000;2022-12-18T03:25:49;15.30;40.90
58993;DHT22;44782;0.000;0.000;2022-12-18T03:28:08;15.30;41.00
58993;DHT22;44782;0.000;0.000;2022-12-18T03:30:26;15.30;41.00
58993;DHT22;44782;0.000;0.000;2022-12-18T03:33:08;15.30;40.80
58993;DHT22;44782;0.000;0.000;2022-12-18T03:35:30;15.30;40.10
58993;DHT22;44782;0.000;0.000;2022-12-18T03:37:47;15.30;40.60
58993;DHT22;44782;0.000;0.000;2022-12-18T03:40:04;15.30;40.90
58993;DHT22;44782;0.000;0.000;2022-12-18T03:42:32;15.30;40.80
58993;DHT22;44782;0.000;0.000;2022-12-18T03:47:52;15.40;40.10
58993;DHT22;44782;0.000;0.000;2022-12-18T03:50:27;15.30;40.30
58993;DHT22;44782;0.000;0.000;2022-12-18T03:53:09;15.30;40.40
58993;DHT22;44782;0.000;0.000;2022-12-18T03:55:32;15.30;40.00
58993;DHT22;44782;0.000;0.000;2022-12-18T03:57:50;15.30;40.50
58993;DHT22;44782;0.000;0.000;2022-12-18T04:00:15;15.30;40.70
58993;DHT22;44782;0.000;0.000;2022-12-18T04:02:32;15.40;40.30
58993;DHT22;44782;0.000;0.000;2022-12-18T04:04:52;15.30;40.60
58993;DHT22;44782;0.000;0.000;2022-12-18T04:07:09;15.30;40.40
58993;DHT22;44782;0.000;0.000;2022-12-18T04:09:25;15.30;40.50
58993;DHT22;44782;0.000;0.000;2022-12-18T04:11:42;15.30;40.50
58993;DHT22;44782;0.000;0.000;2022-12-18T04:14:00;15.30;40.40
58993;DHT22;44782;0.000;0.000;2022-12-18T04:16:16;15.30;40.40
58993;DHT22;44782;0.000;0.000;2022-12-18T04:18:32;15.30;40.40
58993;DHT22;44782;0.000;0.000;2022-12-18T04:20:47;15.30;40.30
58993;DHT22;44782;0.000;0.000;2022-12-18T04:23:03;15.30;40.30
58993;DHT22;44782;0.000;0.000;2022-12-18T04:25:18;15.30;40.30
58993;DHT22;44782;0.000;0.000;2022-12-18T04:27:34;15.30;40.30
58993;DHT22;44782;0.000;0.000;2022-12-18T04:29:50;15.30;40.20
58993;DHT22;44782;0.000;0.000;2022-12-18T04:32:06;15.30;40.30
58993;DHT22;44782;0.000;0.000;2022-12-18T04:34:22;15.30;40.20
58993;DHT22;44782;0.000;0.000;2022-12-18T04:36:37;15.30;40.10
58993;DHT22;44782;0.000;0.000;2022-12-18T04:38:53;15.30;40.10
58993;DHT22;44782;0.000;0.000;2022-12-18T04:41:09;15.30;40.10
58993;DHT22;44782;0.000;0.000;2022-12-18T04:43:25;15.30;40.10
58993;DHT22;44782;0.000;0.000;2022-12-18T04:45:41;15.30;40.00
58993;DHT22;44782;0.000;0.000;2022-12-18T04:48:00;15.30;40.00
58993;DHT22;44782;0.000;0.000;2022-12-18T04:50:16;15.30;39.80
58993;DHT22;44782;0.000;0.000;2022-12-18T04:52:32;15.30;40.00
58993;DHT22;44782;0.000;0.000;2022-12-18T04:54:47;15.30;40.00
58993;DHT22;44782;0.000;0.000;2022-12-18T04:57:03;15.30;39.90
58993;DHT22;44782;0.000;0.000;2022-12-18T04:59:19;15.30;39.80
58993;DHT22;44782;0.000;0.000;2022-12-18T05:01:34;15.30;39.80
58993;DHT22;44782;0.000;0.000;2022-12-18T05:03:51;15.30;39.70
58993;DHT22;44782;0.000;0.000;2022-12-18T05:06:07;15.30;39.70
58993;DHT22;44782;0.000;0.000;2022-12-18T05:08:24;15.30;39.70
58993;DHT22;44782;0.000;0.000;2022-12-18T05:10:40;15.30;40.20
58993;DHT22;44782;0.000;0.000;2022-12-18T05:12:56;15.30;39.70
58993;DHT22;44782;0.000;0.000;2022-12-18T05:15:14;15.30;39.70
58993;DHT22;44782;0.000;0.000;2022-12-18T05:17:30;15.30;39.70
58993;DHT22;44782;0.000;0.000;2022-12-18T05:19:45;15.30;39.70
58993;DHT22;44782;0.000;0.000;2022-12-18T05:22:01;15.30;39.70
58993;DHT22;44782;0.000;0.000;2022-12-18T05:24:17;15.30;39.70
58993;DHT22;44782;0.000;0.000;2022-12-18T05:26:32;15.30;39.70
58993;DHT22;44782;0.000;0.000;2022-12-18T05:28:48;15.30;39.70
58993;DHT22;44782;0.000;0.000;2022-12-18T05:31:04;15.30;39.70
58993;DHT22;44782;0.000;0.000;2022-12-18T05:33:22;15.30;39.70
58993;DHT22;44782;0.000;0.000;2022-12-18T05:35:38;15.30;39.60
58993;DHT22;44782;0.000;0.000;2022-12-18T05:37:54;15.30;40.50
58993;DHT22;44782;0.000;0.000;2022-12-18T05:40:11;15.30;39.60
58993;DHT22;44782;0.000;0.000;2022-12-18T05:42:27;15.30;39.70
58993;DHT22;44782;0.000;0.000;2022-12-18T05:44:43;15.40;39.70
58993;DHT22;44782;0.000;0.000;2022-12-18T05:46:59;15.40;39.70
58993;DHT22;44782;0.000;0.000;2022-12-18T05:49:14;15.40;39.70
58993;DHT22;44782;0.000;0.000;2022-12-18T05:51:30;15.40;39.70
58993;DHT22;44782;0.000;0.000;2022-12-18T05:53:47;15.30;39.60
58993;DHT22;44782;0.000;0.000;2022-12-18T05:56:06;15.40;39.60
58993;DHT22;44782;0.000;0.000;2022-12-18T05:58:22;15.40;39.60
58993;DHT22;44782;0.000;0.000;2022-12-18T06:00:40;15.40;39.60
58993;DHT22;44782;0.000;0.000;2022-12-18T06:02:56;15.40;39.60
58993;DHT22;44782;0.000;0.000;2022-12-18T06:05:11;15.40;39.70
58993;DHT22;44782;0.000;0.000;2022-12-18T06:07:27;15.40;39.60
58993;DHT22;44782;0.000;0.000;2022-12-18T06:09:43;15.40;39.60
58993;DHT22;44782;0.000;0.000;2022-12-18T06:11:59;15.40;39.70
58993;DHT22;44782;0.000;0.000;2022-12-18T06:14:14;15.40;39.60
58993;DHT22;44782;0.000;0.000;2022-12-18T06:16:32;15.40;39.60
58993;DHT22;44782;0.000;0.000;2022-12-18T06:18:48;15.40;39.60
58993;DHT22;44782;0.000;0.000;2022-12-18T06:21:04;15.40;39.60
58993;DHT22;44782;0.000;0.000;2022-12-18T06:23:19;15.40;39.50
58993;DHT22;44782;0.000;0.000;2022-12-18T06:25:38;15.40;39.50
58993;DHT22;44782;0.000;0.000;2022-12-18T06:27:54;15.40;39.40
58993;DHT22;44782;0.000;0.000;2022-12-18T06:30:10;15.40;39.60
58993;DHT22;44782;0.000;0.000;2022-12-18T06:32:26;15.40;39.50
58993;DHT22;44782;0.000;0.000;2022-12-18T06:34:42;15.40;39.50
58993;DHT22;44782;0.000;0.000;2022-12-18T06:36:58;15.40;39.50
58993;DHT22;44782;0.000;0.000;2022-12-18T06:39:14;15.40;39.40
58993;DHT22;44782;0.000;0.000;2022-12-18T06:41:29;15.40;39.40
58993;DHT22;44782;0.000;0.000;2022-12-18T06:43:45;15.40;39.30
58993;DHT22;44782;0.000;0.000;2022-12-18T06:46:02;15.40;39.30
58993;DHT22;44782;0.000;0.000;2022-12-18T06:48:20;15.40;39.30
58993;DHT22;44782;0.000;0.000;2022-12-18T06:50:36;15.40;39.10
58993;DHT22;44782;0.000;0.000;2022-12-18T06:52:52;15.40;39.20
58993;DHT22;44782;0.000;0.000;2022-12-18T06:55:07;15.40;39.10
58993;DHT22;44782;0.000;0.000;2022-12-18T06:57:24;15.50;39.20
58993;DHT22;44782;0.000;0.000;2022-12-18T06:59:39;15.50;39.10
58993;DHT22;44782;0.000;0.000;2022-12-18T07:01:55;15.50;39.10
58993;DHT22;44782;0.000;0.000;2022-12-18T07:04:11;15.40;39.10
58993;DHT22;44782;0.000;0.000;2022-12-18T07:06:27;15.40;39.00
58993;DHT22;44782;0.000;0.000;2022-12-18T07:08:43;15.50;39.10
58993;DHT22;44782;0.000;0.000;2022-12-18T07:10:59;15.50;39.00
58993;DHT22;44782;0.000;0.000;2022-12-18T07:13:15;15.50;39.00
58993;DHT22;44782;0.000;0.000;2022-12-18T07:15:31;15.50;39.00
58993;DHT22;44782;0.000;0.000;2022-12-18T07:17:47;15.50;39.00
58993;DHT22;44782;0.000;0.000;2022-12-18T07:20:03;15.50;39.00
58993;DHT22;44782;0.000;0.000;2022-12-18T07:22:19;15.50;38.90
58993;DHT22;44782;0.000;0.000;2022-12-18T07:24:34;15.50;38.90
58993;DHT22;44782;0.000;0.000;2022-12-18T07:26:50;15.50;38.90
58993;DHT22;44782;0.000;0.000;2022-12-18T07:29:05;15.50;38.80
58993;DHT22;44782;0.000;0.000;2022-12-18T07:31:21;15.50;38.80
58993;DHT22;44782;0.000;0.000;2022-12-18T07:33:37;15.50;38.80
58993;DHT22;44782;0.000;0.000;2022-12-18T07:35:53;15.50;38.90
58993;DHT22;44782;0.000;0.000;2022-12-18T07:38:09;15.50;38.80
58993;DHT22;44782;0.000;0.000;2022-12-18T07:40:24;15.50;38.80
58993;DHT22;44782;0.000;0.000;2022-12-18T07:42:40;15.50;38.80
58993;DHT22;44782;0.000;0.000;2022-12-18T07:44:56;15.50;38.80
58993;DHT22;44782;0.000;0.000;2022-12-18T07:47:12;15.50;38.80
58993;DHT22;44782;0.000;0.000;2022-12-18T07:49:28;15.50;38.80
58993;DHT22;44782;0.000;0.000;2022-12-18T07:51:43;15.50;38.70
58993;DHT22;44782;0.000;0.000;2022-12-18T07:54:04;15.50;38.70
58993;DHT22;44782;0.000;0.000;2022-12-18T07:56:20;15.50;38.70
58993;DHT22;44782;0.000;0.000;2022-12-18T07:58:37;15.50;38.70
58993;DHT22;44782;0.000;0.000;2022-12-18T08:00:53;15.50;38.60
58993;DHT22;44782;0.000;0.000;2022-12-18T08:03:09;15.50;38.60
58993;DHT22;44782;0.000;0.000;2022-12-18T08:05:25;15.50;38.60
58993;DHT22;44782;0.000;0.000;2022-12-18T08:07:41;15.50;38.60
58993;DHT22;44782;0.000;0.000;2022-12-18T08:09:57;15.50;38.60
58993;DHT22;44782;0.000;0.000;2022-12-18T08:12:12;15.50;38.50
58993;DHT22;44782;0.000;0.000;2022-12-18T08:14:28;15.50;38.60
58993;DHT22;44782;0.000;0.000;2022-12-18T08:16:44;15.50;38.50
58993;DHT22;44782;0.000;0.000;2022-12-18T08:18:59;15.50;38.50
58993;DHT22;44782;0.000;0.000;2022-12-18T08:21:17;15.50;38.50
58993;DHT22;44782;0.000;0.000;2022-12-18T08:23:33;15.50;38.40
58993;DHT22;44782;0.000;0.000;2022-12-18T08:25:49;15.50;38.40
58993;DHT22;44782;0.000;0.000;2022-12-18T08:28:05;15.50;38.40
58993;DHT22;44782;0.000;0.000;2022-12-18T08:30:20;15.50;38.40
58993;DHT22;44782;0.000;0.000;2022-12-18T08:32:36;15.50;38.40
58993;DHT22;44782;0.000;0.000;2022-12-18T08:34:52;15.50;38.30
58993;DHT22;44782;0.000;0.000;2022-12-18T08:37:08;15.50;38.30
58993;DHT22;44782;0.000;0.000;2022-12-18T08:39:24;15.50;38.30
58993;DHT22;44782;0.000;0.000;2022-12-18T08:41:39;15.50;38.30
58993;DHT22;44782;0.000;0.000;2022-12-18T08:43:55;15.50;38.30
58993;DHT22;44782;0.000;0.000;2022-12-18T08:46:38;15.50;38.30
58993;DHT22;44782;0.000;0.000;2022-12-18T08:48:54;15.50;38.00
58993;DHT22;44782;0.000;0.000;2022-12-18T08:51:11;15.50;38.20
58993;DHT22;44782;0.000;0.000;2022-12-18T08:53:27;15.50;38.20
58993;DHT22;44782;0.000;0.000;2022-12-18T08:55:42;15.50;38.10
58993;DHT22;44782;0.000;0.000;2022-12-18T08:57:58;15.50;38.10
58993;DHT22;44782;0.000;0.000;2022-12-18T09:00:14;15.60;38.20
58993;DHT22;44782;0.000;0.000;2022-12-18T09:02:30;15.60;38.10
58993;DHT22;44782;0.000;0.000;2022-12-18T09:04:47;15.60;38.20
58993;DHT22;44782;0.000;0.000;2022-12-18T09:07:02;15.60;38.10
58993;DHT22;44782;0.000;0.000;2022-12-18T09:09:18;15.60;38.90
58993;DHT22;44782;0.000;0.000;2022-12-18T09:11:34;15.60;38.20
58993;DHT22;44782;0.000;0.000;2022-12-18T09:13:50;15.60;38.20
58993;DHT22;44782;0.000;0.000;2022-12-18T09:16:06;15.60;38.20
58993;DHT22;44782;0.000;0.000;2022-12-18T09:18:24;15.60;38.20
58993;DHT22;44782;0.000;0.000;2022-12-18T09:20:40;15.60;38.10
58993;DHT22;44782;0.000;0.000;2022-12-18T09:22:56;15.60;38.90
58993;DHT22;44782;0.000;0.000;2022-12-18T09:25:11;15.50;38.10
58993;DHT22;44782;0.000;0.000;2022-12-18T09:27:27;15.60;38.20
58993;DHT22;44782;0.000;0.000;2022-12-18T09:29:43;15.60;38.20
58993;DHT22;44782;0.000;0.000;2022-12-18T09:31:58;15.60;38.20
58993;DHT22;44782;0.000;0.000;2022-12-18T09:34:14;15.60;38.20
58993;DHT22;44782;0.000;0.000;2022-12-18T09:36:30;15.60;38.20
58993;DHT22;44782;0.000;0.000;2022-12-18T09:38:45;15.60;38.30
58993;DHT22;44782;0.000;0.000;2022-12-18T09:41:32;15.50;38.20
58993;DHT22;44782;0.000;0.000;2022-12-18T09:43:52;15.60;37.80
58993;DHT22;44782;0.000;0.000;2022-12-18T09:46:15;15.50;38.20
58993;DHT22;44782;0.000;0.000;2022-12-18T09:48:36;15.50;38.20
58993;DHT22;44782;0.000;0.000;2022-12-18T09:51:04;15.50;38.20
58993;DHT22;44782;0.000;0.000;2022-12-18T09:53:26;15.50;38.80
58993;DHT22;44782;0.000;0.000;2022-12-18T09:55:45;15.50;38.10
58993;DHT22;44782;0.000;0.000;2022-12-18T09:58:16;15.50;38.20
58993;DHT22;44782;0.000;0.000;2022-12-18T10:00:35;15.50;38.00
58993;DHT22;44782;0.000;0.000;2022-12-18T10:03:01;15.50;38.20
58993;DHT22;44782;0.000;0.000;2022-12-18T10:10:53;15.50;37.70
58993;DHT22;44782;0.000;0.000;2022-12-18T10:15:44;15.50;38.30
58993;DHT22;44782;0.000;0.000;2022-12-18T10:21:11;15.50;37.70
58993;DHT22;44782;0.000;0.000;2022-12-18T10:23:42;15.50;38.10
58993;DHT22;44782;0.000;0.000;2022-12-18T10:26:08;15.50;38.00
58993;DHT22;44782;0.000;0.000;2022-12-18T10:28:25;15.50;38.30
58993;DHT22;44782;0.000;0.000;2022-12-18T10:30:42;15.50;38.20
58993;DHT22;44782;0.000;0.000;2022-12-18T10:33:02;15.50;38.30
58993;DHT22;44782;0.000;0.000;2022-12-18T10:35:23;15.50;38.80
58993;DHT22;44782;0.000;0.000;2022-12-18T10:38:00;15.50;38.20
58993;DHT22;44782;0.000;0.000;2022-12-18T10:40:16;15.60;37.90
58993;DHT22;44782;0.000;0.000;2022-12-18T10:42:31;15.50;38.30
58993;DHT22;44782;0.000;0.000;2022-12-18T10:45:02;15.50;38.30
58993;DHT22;44782;0.000;0.000;2022-12-18T10:47:19;15.60;38.00
58993;DHT22;44782;0.000;0.000;2022-12-18T10:49:35;15.50;38.30
58993;DHT22;44782;0.000;0.000;2022-12-18T10:51:51;15.60;38.30
58993;DHT22;44782;0.000;0.000;2022-12-18T10:54:23;15.60;38.30
58993;DHT22;44782;0.000;0.000;2022-12-18T10:56:41;15.60;38.30
58993;DHT22;44782;0.000;0.000;2022-12-18T10:59:03;15.60;38.40
58993;DHT22;44782;0.000;0.000;2022-12-18T11:01:19;15.60;38.20
58993;DHT22;44782;0.000;0.000;2022-12-18T11:08:21;15.60;38.20
58993;DHT22;44782;0.000;0.000;2022-12-18T11:10:38;15.60;38.30
58993;DHT22;44782;0.000;0.000;2022-12-18T11:12:57;15.60;38.20
58993;DHT22;44782;0.000;0.000;2022-12-18T11:15:28;15.60;38.20
58993;DHT22;44782;0.000;0.000;2022-12-18T11:17:48;15.70;39.30
58993;DHT22;44782;0.000;0.000;2022-12-18T11:20:30;15.70;39.90
58993;DHT22;44782;0.000;0.000;2022-12-18T11:23:16;15.80;40.90
58993;DHT22;44782;0.000;0.000;2022-12-18T11:25:33;15.90;41.70
58993;DHT22;44782;0.000;0.000;2022-12-18T11:27:58;15.90;41.00
58993;DHT22;44782;0.000;0.000;2022-12-18T11:32:41;16.10;41.20
58993;DHT22;44782;0.000;0.000;2022-12-18T11:37:53;16.30;43.30
58993;DHT22;44782;0.000;0.000;2022-12-18T11:40:19;16.30;43.00
58993;DHT22;44782;0.000;0.000;2022-12-18T11:42:45;16.40;43.10
58993;DHT22;44782;0.000;0.000;2022-12-18T11:47:38;16.50;43.80
58993;DHT22;44782;0.000;0.000;2022-12-18T11:49:55;16.50;43.50
58993;DHT22;44782;0.000;0.000;2022-12-18T11:52:38;16.60;43.60
58993;DHT22;44782;0.000;0.000;2022-12-18T11:54:58;16.70;45.50
58993;DHT22;44782;0.000;0.000;2022-12-18T11:57:43;16.70;44.50
58993;DHT22;44782;0.000;0.000;2022-12-18T12:00:18;16.80;46.00
58993;DHT22;44782;0.000;0.000;2022-12-18T12:11:05;17.00;46.60
58993;DHT22;44782;0.000;0.000;2022-12-18T12:16:25;17.10;46.40
58993;DHT22;44782;0.000;0.000;2022-12-18T12:21:41;17.20;45.50
58993;DHT22;44782;0.000;0.000;2022-12-18T12:26:38;17.20;45.70
58993;DHT22;44782;0.000;0.000;2022-12-18T12:31:47;17.30;45.00
58993;DHT22;44782;0.000;0.000;2022-12-18T12:34:31;17.30;45.10
58993;DHT22;44782;0.000;0.000;2022-12-18T12:37:08;17.30;44.60
58993;DHT22;44782;0.000;0.000;2022-12-18T12:39:31;17.30;44.80
58993;DHT22;44782;0.000;0.000;2022-12-18T12:41:48;17.20;44.40
58993;DHT22;44782;0.000;0.000;2022-12-18T12:44:31;17.20;44.10
58993;DHT22;44782;0.000;0.000;2022-12-18T12:46:48;17.20;44.10
58993;DHT22;44782;0.000;0.000;2022-12-18T12:49:20;17.20;44.00
58993;DHT22;44782;0.000;0.000;2022-12-18T12:51:41;17.30;44.10
58993;DHT22;44782;0.000;0.000;2022-12-18T12:53:59;17.30;43.90
58993;DHT22;44782;0.000;0.000;2022-12-18T12:56:18;17.30;43.90
58993;DHT22;44782;0.000;0.000;2022-12-18T12:58:59;17.30;43.70
58993;DHT22;44782;0.000;0.000;2022-12-18T13:06:37;17.20;43.60
58993;DHT22;44782;0.000;0.000;2022-12-18T13:08:58;17.20;43.50
58993;DHT22;44782;0.000;0.000;2022-12-18T13:14:02;17.20;43.60
58993;DHT22;44782;0.000;0.000;2022-12-18T13:16:20;17.20;43.50
58993;DHT22;44782;0.000;0.000;2022-12-18T13:18:36;17.20;44.30
58993;DHT22;44782;0.000;0.000;2022-12-18T13:23:34;17.20;43.40
58993;DHT22;44782;0.000;0.000;2022-12-18T13:30:56;17.20;43.30
58993;DHT22;44782;0.000;0.000;2022-12-18T13:35:39;17.20;43.20
58993;DHT22;44782;0.000;0.000;2022-12-18T13:37:55;17.20;43.20
58993;DHT22;44782;0.000;0.000;2022-12-18T13:42:58;17.20;43.00
58993;DHT22;44782;0.000;0.000;2022-12-18T13:45:42;17.20;43.20
58993;DHT22;44782;0.000;0.000;2022-12-18T13:47:58;17.20;43.20
58993;DHT22;44782;0.000;0.000;2022-12-18T13:50:25;17.20;43.20
58993;DHT22;44782;0.000;0.000;2022-12-18T13:52:43;17.20;43.20
58993;DHT22;44782;0.000;0.000;2022-12-18T13:55:00;17.20;43.30
58993;DHT22;44782;0.000;0.000;2022-12-18T13:57:37;17.20;43.30
58993;DHT22;44782;0.000;0.000;2022-12-18T13:59:57;17.20;43.30
58993;DHT22;44782;0.000;0.000;2022-12-18T14:02:15;17.20;43.30
58993;DHT22;44782;0.000;0.000;2022-12-18T14:04:33;17.20;43.30
58993;DHT22;44782;0.000;0.000;2022-12-18T14:06:52;17.20;43.20
58993;DHT22;44782;0.000;0.000;2022-12-18T14:09:14;17.20;43.20
58993;DHT22;44782;0.000;0.000;2022-12-18T14:11:30;17.20;43.20
58993;DHT22;44782;0.000;0.000;2022-12-18T14:13:46;17.20;43.20
58993;DHT22;44782;0.000;0.000;2022-12-18T14:16:04;17.20;43.10
58993;DHT22;44782;0.000;0.000;2022-12-18T14:20:49;17.20;43.00
58993;DHT22;44782;0.000;0.000;2022-12-18T14:23:29;17.20;43.10
58993;DHT22;44782;0.000;0.000;2022-12-18T14:25:46;17.20;42.90
58993;DHT22;44782;0.000;0.000;2022-12-18T14:32:42;17.20;43.10
58993;DHT22;44782;0.000;0.000;2022-12-18T14:34:57;17.20;42.90
58993;DHT22;44782;0.000;0.000;2022-12-18T14:37:25;17.20;42.80
58993;DHT22;44782;0.000;0.000;2022-12-18T14:39:53;17.20;42.70
58993;DHT22;44782;0.000;0.000;2022-12-18T14:42:11;17.20;42.50
58993;DHT22;44782;0.000;0.000;2022-12-18T14:44:26;17.20;42.60
58993;DHT22;44782;0.000;0.000;2022-12-18T14:46:44;17.10;42.60
58993;DHT22;44782;0.000;0.000;2022-12-18T14:49:29;17.10;42.50
58993;DHT22;44782;0.000;0.000;2022-12-18T14:51:57;17.20;42.20
58993;DHT22;44782;0.000;0.000;2022-12-18T14:54:18;17.20;42.30
58993;DHT22;44782;0.000;0.000;2022-12-18T14:56:35;17.10;42.30
58993;DHT22;44782;0.000;0.000;2022-12-18T14:59:00;17.10;42.40
58993;DHT22;44782;0.000;0.000;2022-12-18T15:03:57;17.10;42.30
58993;DHT22;44782;0.000;0.000;2022-12-18T15:06:35;17.10;42.40
58993;DHT22;44782;0.000;0.000;2022-12-18T15:08:51;17.10;42.00
58993;DHT22;44782;0.000;0.000;2022-12-18T15:11:45;17.10;42.40
58993;DHT22;44782;0.000;0.000;2022-12-18T15:14:42;17.10;41.90
58993;DHT22;44782;0.000;0.000;2022-12-18T15:16:59;17.10;42.00
58993;DHT22;44782;0.000;0.000;2022-12-18T15:19:16;17.10;42.20
58993;DHT22;44782;0.000;0.000;2022-12-18T15:21:31;17.10;42.30
58993;DHT22;44782;0.000;0.000;2022-12-18T15:23:50;17.10;42.20
58993;DHT22;44782;0.000;0.000;2022-12-18T15:26:08;17.10;42.10
58993;DHT22;44782;0.000;0.000;2022-12-18T15:28:34;17.10;42.10
58993;DHT22;44782;0.000;0.000;2022-12-18T15:33:35;17.10;41.90
58993;DHT22;44782;0.000;0.000;2022-12-18T15:35:58;17.10;42.20
58993;DHT22;44782;0.000;0.000;2022-12-18T15:38:14;17.10;42.10
58993;DHT22;44782;0.000;0.000;2022-12-18T15:40:30;17.10;42.20
58993;DHT22;44782;0.000;0.000;2022-12-18T15:42:46;17.10;42.10
58993;DHT22;44782;0.000;0.000;2022-12-18T15:45:29;17.10;42.20
58993;DHT22;44782;0.000;0.000;2022-12-18T15:47:45;17.10;42.30
58993;DHT22;44782;0.000;0.000;2022-12-18T15:50:01;17.20;42.20
58993;DHT22;44782;0.000;0.000;2022-12-18T15:52:18;17.20;42.20
58993;DHT22;44782;0.000;0.000;2022-12-18T15:54:41;17.20;42.30
58993;DHT22;44782;0.000;0.000;2022-12-18T15:57:15;17.20;42.30
58993;DHT22;44782;0.000;0.000;2022-12-18T15:59:39;17.20;42.30
58993;DHT22;44782;0.000;0.000;2022-12-18T16:01:55;17.20;42.30
58993;DHT22;44782;0.000;0.000;2022-12-18T16:04:13;17.20;42.30
58993;DHT22;44782;0.000;0.000;2022-12-18T16:06:28;17.20;42.40
58993;DHT22;44782;0.000;0.000;2022-12-18T16:08:44;17.20;42.40
58993;DHT22;44782;0.000;0.000;2022-12-18T16:11:00;17.20;42.40
58993;DHT22;44782;0.000;0.000;2022-12-18T16:13:19;17.20;42.30
58993;DHT22;44782;0.000;0.000;2022-12-18T16:15:35;17.20;42.30
58993;DHT22;44782;0.000;0.000;2022-12-18T16:17:51;17.20;42.40
58993;DHT22;44782;0.000;0.000;2022-12-18T16:20:15;17.20;42.40
58993;DHT22;44782;0.000;0.000;2022-12-18T16:22:31;17.30;42.50
58993;DHT22;44782;0.000;0.000;2022-12-18T16:24:47;17.20;42.40
58993;DHT22;44782;0.000;0.000;2022-12-18T16:27:03;17.30;42.40
58993;DHT22;44782;0.000;0.000;2022-12-18T16:29:29;17.20;42.30
58993;DHT22;44782;0.000;0.000;2022-12-18T16:31:45;17.30;42.30
58993;DHT22;44782;0.000;0.000;2022-12-18T16:34:31;17.20;42.30